Time;durP1;ratioP1;P1;durP2;ratioP2;P2;SDS_P1;SDS_P2;PMS_P1;PMS_P2;Temp;Humidity;BMP_temperature;BMP_pressure;BME280_temperature;BME280_humidity;BME280_pressure;Samples;Min_cycle;Max_cycle;Signal;HPM_P1;HPM_P2
2023/04/13 00:00:42;;;;;;;2.97;0.75;;;5.40;99.90;;;;;;4918946;29;20031;-89
2023/04/13 00:03:11;;;;;;;5.68;1.15;;;5.50;99.90;;;;;;4918698;29;20076;-89
2023/04/13 00:05:38;;;;;;;2.13;0.60;;;5.50;99.90;;;;;;4918695;29;20486;-89
2023/04/13 00:08:04;;;;;;;4.53;0.68;;;5.50;99.90;;;;;;4918525;29;20032;-89
2023/04/13 00:10:35;;;;;;;6.90;1.20;;;5.50;99.90;;;;;;4918460;29;20044;-88
2023/04/13 00:13:03;;;;;;;5.75;0.90;;;5.60;99.90;;;;;;4937860;29;20092;-88
2023/04/13 00:15:30;;;;;;;5.10;1.20;;;5.60;99.90;;;;;;4973572;28;20074;-88
2023/04/13 00:17:55;;;;;;;5.70;1.10;;;5.60;99.90;;;;;;4973076;28;20050;-89
2023/04/13 00:20:21;;;;;;;3.05;0.95;;;5.70;99.90;;;;;;4973282;28;20489;-89
2023/04/13 00:22:47;;;;;;;4.68;1.20;;;5.70;99.90;;;;;;4972408;28;20027;-89
2023/04/13 00:25:14;;;;;;;3.13;0.80;;;5.70;99.90;;;;;;4972083;28;20448;-88
2023/04/13 00:27:42;;;;;;;4.80;1.20;;;5.70;99.90;;;;;;4972848;28;20034;-89
2023/04/13 00:30:10;;;;;;;6.18;1.30;;;5.70;99.90;;;;;;4971988;28;20027;-89
2023/04/13 00:32:38;;;;;;;6.03;0.98;;;5.70;99.90;;;;;;4972223;28;20039;-87
2023/04/13 00:35:05;;;;;;;6.47;1.10;;;5.70;99.90;;;;;;4972181;28;20028;-89
2023/04/13 00:37:31;;;;;;;6.03;1.20;;;5.60;99.90;;;;;;4972488;28;20023;-88
2023/04/13 00:39:58;;;;;;;1.65;0.75;;;5.60;99.90;;;;;;4972751;28;20031;-89
2023/04/13 00:42:24;;;;;;;0.98;0.52;;;5.60;99.90;;;;;;4973002;28;20448;-86
2023/04/13 00:44:51;;;;;;;2.53;0.28;;;5.50;99.90;;;;;;4972935;28;20029;-89
2023/04/13 00:47:25;;;;;;;1.65;0.32;;;5.50;99.90;;;;;;4972637;28;20114;-91
2023/04/13 00:49:55;;;;;;;1.23;0.30;;;5.50;99.90;;;;;;4973264;28;20058;-92
2023/04/13 00:52:21;;;;;;;0.82;0.20;;;5.40;99.90;;;;;;4972473;28;20070;-91
2023/04/13 00:54:50;;;;;;;0.28;0.20;;;5.30;99.90;;;;;;4972495;28;20047;-90
2023/04/13 00:57:17;;;;;;;0.10;0.10;;;5.20;99.90;;;;;;4971322;28;20498;-89
2023/04/13 00:59:44;;;;;;;1.88;0.10;;;5.20;99.90;;;;;;4972843;28;20031;-90
2023/04/13 01:02:09;;;;;;;1.75;0.30;;;5.10;99.90;;;;;;4972058;28;20051;-90
2023/04/13 01:04:36;;;;;;;0.70;0.30;;;5.00;99.90;;;;;;4975176;28;20038;-89
2023/04/13 01:07:36;;;;;;;3.10;0.50;;;5.00;99.90;;;;;;4972771;28;20033;-90
2023/04/13 01:10:20;;;;;;;2.63;0.75;;;5.00;99.90;;;;;;4972814;28;20048;-90
2023/04/13 01:13:19;;;;;;;4.53;0.63;;;4.90;99.90;;;;;;4957782;28;20039;-90
2023/04/13 01:15:55;;;;;;;6.82;2.28;;;5.00;99.90;;;;;;4967905;28;20074;-90
2023/04/13 01:18:23;;;;;;;6.50;0.95;;;5.00;99.90;;;;;;4971679;28;20031;-90
2023/04/13 01:20:51;;;;;;;4.57;0.80;;;5.00;99.90;;;;;;4971961;28;20058;-90
2023/04/13 01:23:43;;;;;;;3.55;1.00;;;5.00;99.90;;;;;;4971962;28;20031;-90
2023/04/13 01:26:08;;;;;;;2.75;0.70;;;5.10;99.90;;;;;;4971753;28;20019;-89
2023/04/13 01:28:37;;;;;;;8.18;1.20;;;5.10;99.90;;;;;;4972080;28;20027;-90
2023/04/13 01:31:10;;;;;;;16.50;1.95;;;5.10;99.90;;;;;;4971511;28;20485;-90
2023/04/13 01:33:40;;;;;;;15.23;1.58;;;5.20;99.90;;;;;;4971242;28;20086;-90
2023/04/13 01:36:07;;;;;;;17.55;1.95;;;5.20;99.90;;;;;;4971706;28;20035;-90
2023/04/13 01:38:33;;;;;;;12.38;2.17;;;5.30;99.90;;;;;;4971791;28;20027;-90
2023/04/13 01:40:58;;;;;;;12.48;1.77;;;5.30;99.90;;;;;;4971624;28;20081;-91
2023/04/13 01:43:26;;;;;;;9.52;2.28;;;5.30;99.90;;;;;;4939817;29;20039;-90
2023/04/13 01:45:54;;;;;;;17.67;2.58;;;5.40;99.90;;;;;;4971657;28;20071;-89
2023/04/13 01:48:27;;;;;;;16.30;2.13;;;5.40;99.90;;;;;;4971728;28;20568;-89
2023/04/13 01:50:59;;;;;;;34.53;4.18;;;5.40;99.90;;;;;;4972163;28;20440;-90
2023/04/13 01:53:31;;;;;;;13.93;2.00;;;5.50;99.90;;;;;;4971468;28;20114;-89
2023/04/13 01:55:59;;;;;;;19.35;2.35;;;5.50;99.90;;;;;;4971695;28;20066;-90
2023/04/13 01:58:27;;;;;;;12.88;1.80;;;5.50;99.90;;;;;;4971369;28;20050;-88
2023/04/13 02:00:54;;;;;;;17.63;2.20;;;5.60;99.90;;;;;;4971844;28;20035;-89
2023/04/13 02:03:21;;;;;;;26.08;3.58;;;5.60;99.90;;;;;;4971651;28;20031;-88
2023/04/13 02:05:48;;;;;;;9.23;2.20;;;5.60;99.90;;;;;;4971031;28;20027;-90
2023/04/13 02:08:14;;;;;;;22.65;2.45;;;5.60;99.90;;;;;;4970637;28;20024;-88
2023/04/13 02:10:41;;;;;;;12.82;1.55;;;5.70;99.90;;;;;;4970703;28;20031;-88
2023/04/13 02:13:08;;;;;;;16.63;3.08;;;5.70;99.90;;;;;;4970766;28;20024;-89
2023/04/13 02:15:36;;;;;;;12.52;2.78;;;5.70;99.90;;;;;;4971088;28;20027;-88
2023/04/13 02:18:03;;;;;;;14.88;2.42;;;5.70;99.90;;;;;;4967487;28;20054;-89
2023/04/13 02:20:39;;;;;;;10.00;2.00;;;5.70;99.90;;;;;;4952951;28;20028;-89
2023/04/13 02:23:07;;;;;;;14.85;2.75;;;5.80;99.90;;;;;;4935275;29;20036;-88
2023/04/13 02:25:33;;;;;;;18.17;2.67;;;5.80;99.90;;;;;;4935422;29;20091;-89
2023/04/13 02:27:59;;;;;;;15.77;2.03;;;5.80;99.90;;;;;;4935789;29;20027;-89
2023/04/13 02:30:26;;;;;;;18.58;1.77;;;5.80;99.90;;;;;;4936576;29;20038;-90
2023/04/13 02:32:53;;;;;;;19.17;2.83;;;5.80;99.90;;;;;;4936996;29;20036;-89
2023/04/13 02:35:19;;;;;;;5.82;1.58;;;5.80;99.90;;;;;;4935869;29;20031;-90
2023/04/13 02:37:45;;;;;;;19.08;1.83;;;5.70;99.90;;;;;;4935796;29;20035;-90
2023/04/13 02:40:11;;;;;;;13.23;2.15;;;5.70;99.90;;;;;;4935950;29;20032;-89
2023/04/13 02:42:38;;;;;;;15.23;3.97;;;5.70;99.90;;;;;;4935323;29;20532;-89
2023/04/13 02:45:06;;;;;;;15.57;2.42;;;5.70;99.90;;;;;;4935216;29;20027;-89
2023/04/13 02:47:32;;;;;;;9.32;1.23;;;5.70;99.90;;;;;;4935507;29;20409;-89
2023/04/13 02:50:02;;;;;;;13.48;1.85;;;5.70;99.90;;;;;;4935495;29;20079;-89
2023/04/13 02:52:27;;;;;;;12.18;1.75;;;5.70;99.90;;;;;;4935132;29;20118;-90
2023/04/13 02:54:54;;;;;;;10.23;1.90;;;5.70;99.90;;;;;;4935169;29;20110;-90
2023/04/13 02:57:21;;;;;;;9.27;1.80;;;5.70;99.90;;;;;;4935201;29;20111;-90
2023/04/13 02:59:50;;;;;;;8.90;1.35;;;5.70;99.90;;;;;;4935303;29;20032;-90
2023/04/13 03:02:16;;;;;;;9.35;1.70;;;5.60;99.90;;;;;;4935363;29;20039;-91
2023/04/13 03:04:43;;;;;;;6.85;1.23;;;5.60;99.90;;;;;;4935004;29;20027;-90
2023/04/13 03:07:09;;;;;;;13.00;2.00;;;5.60;99.90;;;;;;4934889;29;20059;-89
2023/04/13 03:09:39;;;;;;;12.80;1.95;;;5.60;99.90;;;;;;4934950;29;20566;-89
2023/04/13 03:12:08;;;;;;;15.97;2.23;;;5.70;99.90;;;;;;4934790;29;20036;-89
2023/04/13 03:14:35;;;;;;;18.55;1.98;;;5.70;99.90;;;;;;4934680;29;20272;-89
2023/04/13 03:17:01;;;;;;;21.17;2.53;;;5.70;99.90;;;;;;4934832;29;20038;-89
2023/04/13 03:19:27;;;;;;;16.52;2.25;;;5.60;99.90;;;;;;4935523;29;20039;-90
2023/04/13 03:21:53;;;;;;;14.77;2.08;;;5.70;99.90;;;;;;4935121;29;20024;-91
2023/04/13 03:24:21;;;;;;;18.75;3.45;;;5.70;99.90;;;;;;4934508;29;20027;-89
2023/04/13 03:26:46;;;;;;;17.08;2.38;;;5.70;99.90;;;;;;4934910;29;20031;-89
2023/04/13 03:29:12;;;;;;;8.95;1.85;;;5.70;99.90;;;;;;4934766;29;20394;-89
2023/04/13 03:31:38;;;;;;;25.80;3.78;;;5.70;99.90;;;;;;4934690;29;20186;-89
2023/04/13 03:34:03;;;;;;;23.17;2.78;;;5.70;99.90;;;;;;4935214;29;20031;-89
2023/04/13 03:36:30;;;;;;;13.52;2.40;;;5.70;99.90;;;;;;4937911;29;20040;-89
2023/04/13 03:38:57;;;;;;;13.18;1.75;;;5.70;99.90;;;;;;4951057;29;20147;-91
2023/04/13 03:41:24;;;;;;;12.27;1.85;;;5.70;99.90;;;;;;4960738;28;20027;-90
2023/04/13 03:43:50;;;;;;;10.88;2.55;;;5.70;99.90;;;;;;4973705;28;20024;-89
2023/04/13 03:46:16;;;;;;;13.93;1.83;;;5.70;99.90;;;;;;4972669;28;20066;-89
2023/04/13 03:48:42;;;;;;;15.98;2.40;;;5.70;99.90;;;;;;4970736;28;20497;-89
2023/04/13 03:51:08;;;;;;;18.20;2.75;;;5.70;99.90;;;;;;4970188;28;20114;-89
2023/04/13 03:53:37;;;;;;;7.32;1.20;;;5.70;99.90;;;;;;4955327;28;20668;-89
2023/04/13 03:56:03;;;;;;;8.73;1.58;;;5.70;99.90;;;;;;4943755;28;20020;-90
2023/04/13 03:58:30;;;;;;;13.10;1.85;;;5.70;99.90;;;;;;4915959;29;20387;-89
2023/04/13 04:00:56;;;;;;;10.02;1.30;;;5.60;99.90;;;;;;4916854;29;20035;-89
2023/04/13 04:03:24;;;;;;;12.45;1.70;;;5.70;99.90;;;;;;4916099;29;20035;-89
2023/04/13 04:05:50;;;;;;;10.32;2.13;;;5.60;99.90;;;;;;4917285;29;20054;-90
2023/04/13 04:08:16;;;;;;;13.90;1.83;;;5.70;99.90;;;;;;4915882;29;20490;-89
2023/04/13 04:10:43;;;;;;;13.52;1.52;;;5.70;99.90;;;;;;4915207;29;20051;-89
2023/04/13 04:13:09;;;;;;;15.20;1.75;;;5.70;99.90;;;;;;4915367;29;20032;-89
2023/04/13 04:15:35;;;;;;;11.20;1.88;;;5.60;99.90;;;;;;4916280;29;20028;-90
2023/04/13 04:18:00;;;;;;;14.02;1.85;;;5.60;99.90;;;;;;4915994;29;20028;-90
2023/04/13 04:20:26;;;;;;;24.67;2.13;;;5.60;99.90;;;;;;4915327;29;20524;-89
2023/04/13 04:22:52;;;;;;;7.95;1.70;;;5.60;99.90;;;;;;4915933;29;20087;-89
2023/04/13 04:25:21;;;;;;;18.88;2.08;;;5.60;99.90;;;;;;4915546;29;20032;-89
2023/04/13 04:28:01;;;;;;;11.60;1.50;;;5.60;99.90;;;;;;4915523;29;20592;-90
2023/04/13 04:30:28;;;;;;;19.83;2.63;;;5.60;99.90;;;;;;4916089;29;20486;-89
2023/04/13 04:32:55;;;;;;;17.00;2.58;;;5.50;99.90;;;;;;4917879;29;20067;-89
2023/04/13 04:35:31;;;;;;;11.32;1.20;;;5.60;99.90;;;;;;4918235;29;20116;-90
2023/04/13 04:37:59;;;;;;;6.18;1.90;;;5.60;99.90;;;;;;4918716;29;20122;-88
2023/04/13 04:40:26;;;;;;;13.25;2.15;;;5.70;99.90;;;;;;4918538;29;20036;-90
2023/04/13 04:42:52;;;;;;;14.93;1.65;;;5.70;99.90;;;;;;4918529;29;20052;-90
2023/04/13 04:45:19;;;;;;;10.68;1.73;;;5.60;99.90;;;;;;4918034;29;20029;-88
2023/04/13 04:47:47;;;;;;;13.38;2.50;;;5.70;99.90;;;;;;4918177;29;20023;-90
2023/04/13 04:50:16;;;;;;;13.27;2.40;;;5.60;99.90;;;;;;4918437;29;20036;-89
2023/04/13 04:52:42;;;;;;;13.10;2.30;;;5.70;99.90;;;;;;4919097;29;20104;-89
2023/04/13 04:55:09;;;;;;;17.05;2.13;;;5.60;99.90;;;;;;4918882;29;20114;-89
2023/04/13 04:57:35;;;;;;;19.05;2.90;;;5.60;99.90;;;;;;4921676;29;20052;-89
2023/04/13 05:00:08;;;;;;;14.52;1.65;;;5.60;99.90;;;;;;4920573;29;20083;-88
2023/04/13 05:02:33;;;;;;;19.20;2.35;;;5.60;99.90;;;;;;4923127;29;20024;-91
2023/04/13 05:04:59;;;;;;;15.30;2.35;;;5.50;99.90;;;;;;4920582;29;20031;-89
2023/04/13 05:07:26;;;;;;;9.60;1.75;;;5.50;99.90;;;;;;4918634;29;20125;-88
2023/04/13 05:09:52;;;;;;;20.33;2.33;;;5.60;99.90;;;;;;4918981;29;20051;-88
2023/04/13 05:12:17;;;;;;;19.83;2.28;;;5.50;99.90;;;;;;4920018;29;20040;-88
2023/04/13 05:14:46;;;;;;;19.17;2.60;;;5.50;99.90;;;;;;4918437;29;20035;-89
2023/04/13 05:17:16;;;;;;;21.38;2.38;;;5.50;99.90;;;;;;4918975;29;20028;-88
2023/04/13 05:19:43;;;;;;;14.02;2.20;;;5.50;99.90;;;;;;4919427;29;20024;-88
2023/04/13 05:22:10;;;;;;;22.27;3.80;;;5.50;99.90;;;;;;4918378;29;20024;-89
2023/04/13 05:24:36;;;;;;;22.40;2.28;;;5.50;99.90;;;;;;4918421;29;20038;-88
2023/04/13 05:27:02;;;;;;;10.27;2.47;;;5.50;99.90;;;;;;4918600;29;20024;-88
2023/04/13 05:29:27;;;;;;;21.77;2.17;;;5.50;99.90;;;;;;4918400;29;20040;-89
2023/04/13 05:31:53;;;;;;;18.40;2.35;;;5.50;99.90;;;;;;4918471;29;20080;-89
2023/04/13 05:34:18;;;;;;;15.52;2.13;;;5.50;99.90;;;;;;4918089;29;20024;-89
2023/04/13 05:36:44;;;;;;;10.73;2.17;;;5.60;99.90;;;;;;4918369;29;20127;-89
2023/04/13 05:39:10;;;;;;;14.30;2.20;;;5.50;99.90;;;;;;4918074;29;20091;-89
2023/04/13 05:41:36;;;;;;;8.07;1.38;;;5.50;99.90;;;;;;4917909;29;20036;-89
2023/04/13 05:44:01;;;;;;;13.45;2.63;;;5.50;99.90;;;;;;4917652;29;20020;-89
2023/04/13 05:46:28;;;;;;;9.43;1.73;;;5.60;99.90;;;;;;4918033;29;20032;-89
2023/04/13 05:48:54;;;;;;;25.67;2.70;;;5.50;99.90;;;;;;4920484;29;20040;-89
2023/04/13 05:51:21;;;;;;;16.88;2.25;;;5.60;99.90;;;;;;4924847;29;20036;-89
2023/04/13 05:53:47;;;;;;;18.58;2.33;;;5.60;99.90;;;;;;4925082;29;20032;-89
2023/04/13 05:56:13;;;;;;;10.57;2.10;;;5.60;99.90;;;;;;4924324;29;20028;-89
2023/04/13 05:58:39;;;;;;;21.45;2.20;;;5.60;99.90;;;;;;4923855;29;20040;-90
2023/04/13 06:01:11;;;;;;;17.40;2.50;;;5.60;99.90;;;;;;4924995;29;20028;-91
2023/04/13 06:03:37;;;;;;;9.60;2.60;;;5.60;99.90;;;;;;4925009;29;20036;-90
2023/04/13 06:06:03;;;;;;;16.33;1.75;;;5.60;99.90;;;;;;4920956;29;20082;-90
2023/04/13 06:08:32;;;;;;;18.13;1.98;;;5.60;99.90;;;;;;4920255;29;20164;-90
2023/04/13 06:10:58;;;;;;;10.68;1.33;;;5.70;99.90;;;;;;4904839;29;20044;-89
2023/04/13 06:13:25;;;;;;;9.93;1.67;;;5.70;99.90;;;;;;4919332;29;20028;-91
2023/04/13 06:15:51;;;;;;;12.40;2.35;;;5.70;99.90;;;;;;4920121;29;20024;-91
2023/04/13 06:18:17;;;;;;;9.13;1.83;;;5.70;99.90;;;;;;4930758;29;20076;-89
2023/04/13 06:20:43;;;;;;;16.63;2.47;;;5.70;99.90;;;;;;4937996;29;20024;-90
2023/04/13 06:23:09;;;;;;;18.23;2.70;;;5.70;99.90;;;;;;4937504;29;20470;-91
2023/04/13 06:25:34;;;;;;;7.72;1.52;;;5.70;99.90;;;;;;4925602;29;20434;-91
2023/04/13 06:28:03;;;;;;;9.60;1.35;;;5.80;99.90;;;;;;4932764;29;20047;-88
2023/04/13 06:30:29;;;;;;;8.88;1.95;;;5.80;99.90;;;;;;4936973;29;20118;-92
2023/04/13 06:32:55;;;;;;;11.18;2.00;;;5.80;99.90;;;;;;4936907;29;20466;-91
2023/04/13 06:35:21;;;;;;;13.68;2.30;;;5.80;99.90;;;;;;4925988;29;20024;-90
2023/04/13 06:37:50;;;;;;;8.15;1.38;;;5.80;99.90;;;;;;4937203;29;20464;-92
2023/04/13 06:40:16;;;;;;;10.85;1.83;;;5.80;99.90;;;;;;4937089;29;20027;-92
2023/04/13 06:42:42;;;;;;;26.23;2.83;;;5.80;99.90;;;;;;4937685;29;20058;-90
2023/04/13 06:45:10;;;;;;;10.95;2.13;;;5.80;99.90;;;;;;4937058;29;20020;-91
2023/04/13 06:47:38;;;;;;;12.68;2.30;;;5.90;99.90;;;;;;4949042;28;20032;-90
2023/04/13 06:50:05;;;;;;;18.08;3.13;;;5.90;99.90;;;;;;4922607;29;20478;-91
2023/04/13 06:52:32;;;;;;;8.95;2.05;;;5.90;99.90;;;;;;4935383;29;20044;-92
2023/04/13 06:54:58;;;;;;;12.70;1.70;;;5.90;99.90;;;;;;4931888;29;20075;-92
2023/04/13 06:57:27;;;;;;;12.50;2.40;;;5.90;99.90;;;;;;4935618;29;20091;-91
2023/04/13 06:59:53;;;;;;;18.40;2.25;;;5.90;99.90;;;;;;4932932;29;20024;-92
2023/04/13 07:02:19;;;;;;;20.67;3.15;;;5.90;99.90;;;;;;4929425;29;20027;-91
2023/04/13 07:04:44;;;;;;;12.88;2.08;;;5.90;99.90;;;;;;4929057;29;20028;-90
2023/04/13 07:07:10;;;;;;;21.00;2.40;;;5.90;99.90;;;;;;4926094;29;20085;-90
2023/04/13 07:09:36;;;;;;;19.10;4.10;;;5.90;99.90;;;;;;4936393;29;20099;-90
2023/04/13 07:12:03;;;;;;;9.20;1.95;;;5.90;99.90;;;;;;4932877;29;20121;-90
2023/04/13 07:14:37;;;;;;;11.60;1.85;;;5.90;99.90;;;;;;4919937;29;20107;-91
2023/04/13 07:17:03;;;;;;;16.23;2.53;;;5.90;99.90;;;;;;4935598;29;20086;-90
2023/04/13 07:19:30;;;;;;;11.07;1.98;;;5.90;99.90;;;;;;4933242;29;20027;-90
2023/04/13 07:21:58;;;;;;;15.70;2.78;;;6.00;99.90;;;;;;4921916;29;20028;-91
2023/04/13 07:24:26;;;;;;;14.55;2.38;;;6.00;99.90;;;;;;4923535;29;20104;-90
2023/04/13 07:26:52;;;;;;;16.95;2.72;;;6.10;99.90;;;;;;4931713;29;20024;-91
2023/04/13 07:29:18;;;;;;;18.60;1.63;;;6.10;99.90;;;;;;4923869;29;20043;-91
2023/04/13 07:31:44;;;;;;;23.92;3.22;;;6.10;99.90;;;;;;4933138;29;20040;-91
2023/04/13 07:34:11;;;;;;;14.23;2.03;;;6.20;99.90;;;;;;4936738;29;20035;-91
2023/04/13 07:36:36;;;;;;;8.80;1.67;;;6.20;99.90;;;;;;4936061;29;20386;-91
2023/04/13 07:39:02;;;;;;;23.25;3.03;;;6.30;99.90;;;;;;4936520;29;20035;-91
2023/04/13 07:41:31;;;;;;;10.57;2.22;;;6.30;99.90;;;;;;4937101;29;20032;-91
2023/04/13 07:43:56;;;;;;;18.13;5.22;;;6.30;99.90;;;;;;4936361;29;20512;-90
2023/04/13 07:46:25;;;;;;;13.90;2.10;;;6.30;99.90;;;;;;4936615;29;20083;-90
2023/04/13 07:48:55;;;;;;;17.08;2.42;;;6.30;99.90;;;;;;4931901;29;20035;-90
2023/04/13 07:51:25;;;;;;;10.82;2.03;;;6.30;99.90;;;;;;4917058;29;20028;-91
2023/04/13 07:53:51;;;;;;;14.10;1.98;;;6.30;99.90;;;;;;4917992;29;20040;-90
2023/04/13 07:56:17;;;;;;;12.07;2.53;;;6.30;99.90;;;;;;4934821;29;20512;-89
2023/04/13 07:58:44;;;;;;;16.27;2.22;;;6.30;99.90;;;;;;4935540;29;20064;-89
2023/04/13 08:01:10;;;;;;;13.80;2.10;;;6.30;99.90;;;;;;4932919;29;20485;-91
2023/04/13 08:03:38;;;;;;;25.98;2.65;;;6.40;99.90;;;;;;4931455;29;20469;-92
2023/04/13 08:06:08;;;;;;;15.65;2.30;;;6.40;99.90;;;;;;4926320;29;20028;-90
2023/04/13 08:08:39;;;;;;;11.03;2.13;;;6.50;99.90;;;;;;4937483;29;20386;-93
2023/04/13 08:11:07;;;;;;;20.88;2.85;;;6.50;99.90;;;;;;4940416;29;20028;-92
2023/04/13 08:13:34;;;;;;;12.85;2.22;;;6.60;99.90;;;;;;4942606;29;20032;-93
2023/04/13 08:15:59;;;;;;;20.08;2.78;;;6.60;99.90;;;;;;4936037;29;20028;-94
2023/04/13 08:18:26;;;;;;;13.98;3.85;;;6.70;99.90;;;;;;4936285;29;20043;-93
2023/04/13 08:20:54;;;;;;;20.42;1.80;;;6.70;99.90;;;;;;4929824;29;20023;-92
2023/04/13 08:23:20;;;;;;;13.48;1.58;;;6.70;99.90;;;;;;4937425;29;20043;-93
2023/04/13 08:25:46;;;;;;;22.80;3.95;;;6.80;99.90;;;;;;4944771;28;20064;-92
2023/04/13 08:28:12;;;;;;;15.20;1.90;;;6.80;99.90;;;;;;4931894;29;20498;-93
2023/04/13 08:30:38;;;;;;;11.75;2.53;;;6.80;99.90;;;;;;4925648;29;20156;-93
2023/04/13 08:33:03;;;;;;;5.82;1.20;;;6.80;99.90;;;;;;4949415;29;20115;-92
2023/04/13 08:35:30;;;;;;;11.43;2.45;;;6.80;99.90;;;;;;4953886;29;20032;-93
2023/04/13 08:37:58;;;;;;;22.73;3.17;;;6.80;99.90;;;;;;4954920;29;20024;-92
2023/04/13 08:40:25;;;;;;;18.58;1.67;;;6.80;99.90;;;;;;4953649;29;20004;-95
2023/04/13 08:42:55;;;;;;;16.80;2.28;;;6.80;99.90;;;;;;4958366;29;20019;-93
2023/04/13 08:45:21;;;;;;;12.52;1.95;;;6.80;99.90;;;;;;4949600;29;20028;-91
2023/04/13 08:47:48;;;;;;;14.30;2.47;;;6.80;99.90;;;;;;4945204;29;20464;-91
2023/04/13 08:50:16;;;;;;;11.60;1.70;;;6.80;99.90;;;;;;4932850;29;20484;-91
2023/04/13 08:52:41;;;;;;;11.38;1.80;;;6.90;99.90;;;;;;4937912;29;20493;-91
2023/04/13 08:55:09;;;;;;;11.10;2.22;;;6.90;99.90;;;;;;4932163;29;20070;-92
2023/04/13 08:57:38;;;;;;;11.10;2.22;;;7.00;99.90;;;;;;4937779;29;20040;-93
2023/04/13 09:00:44;;;;;;;8.02;2.20;;;7.00;99.90;;;;;;4936751;29;20027;-91
2023/04/13 09:03:13;;;;;;;8.70;1.80;;;7.10;99.90;;;;;;4917620;29;20123;-89
2023/04/13 09:05:53;;;;;;;13.32;2.25;;;7.20;99.90;;;;;;4888224;29;20056;-90
2023/04/13 09:08:33;;;;;;;18.27;1.83;;;7.20;99.90;;;;;;4885020;29;20105;-91
2023/04/13 09:11:07;;;;;;;13.70;1.67;;;7.30;99.90;;;;;;4899284;29;20068;-89
2023/04/13 09:13:57;;;;;;;12.20;1.25;;;7.30;99.90;;;;;;4903911;29;20066;-91
2023/04/13 09:16:59;;;;;;;14.27;2.15;;;7.30;99.90;;;;;;4902681;29;20051;-92
2023/04/13 09:19:36;;;;;;;16.77;2.42;;;7.30;99.90;;;;;;4900198;29;20040;-92
2023/04/13 09:23:00;;;;;;;11.85;1.98;;;7.50;99.90;;;;;;4910258;29;20033;-91
2023/04/13 09:25:28;;;;;;;13.43;2.72;;;7.60;99.90;;;;;;4896593;29;20039;-90
2023/04/13 09:28:40;;;;;;;15.70;2.42;;;7.60;99.90;;;;;;4902255;29;21289;-91
2023/04/13 09:32:14;;;;;;;11.25;1.60;;;7.70;99.90;;;;;;4916290;29;20036;-91
2023/04/13 09:34:39;;;;;;;12.40;2.38;;;7.80;99.90;;;;;;4914580;29;20039;-91
2023/04/13 09:37:19;;;;;;;21.27;2.72;;;7.80;99.90;;;;;;4937741;29;20383;-90
2023/04/13 09:39:46;;;;;;;12.83;1.93;;;7.90;99.90;;;;;;4927655;29;20020;-91
2023/04/13 09:42:16;;;;;;;15.98;2.00;;;8.00;99.90;;;;;;4941036;29;20271;-91
2023/04/13 09:44:54;;;;;;;;;;;8.10;99.90;;;;;;4934241;29;20033;-91
2023/04/13 09:47:26;;;;;;;8.18;1.42;;;8.10;99.90;;;;;;4929095;29;19911;-92
2023/04/13 09:49:52;;;;;;;13.93;2.67;;;8.20;99.90;;;;;;4919128;29;20032;-91
2023/04/13 09:52:23;;;;;;;7.03;1.33;;;8.20;99.90;;;;;;4938157;29;20697;-92
2023/04/13 09:54:53;;;;;;;6.35;0.98;;;8.20;99.90;;;;;;4935168;29;20034;-91
2023/04/13 09:57:29;;;;;;;6.28;1.33;;;8.30;99.90;;;;;;4924718;29;20127;-91
2023/04/13 09:59:57;;;;;;;14.38;1.80;;;8.40;99.90;;;;;;4936418;29;20058;-90
2023/04/13 10:02:24;;;;;;;7.30;1.40;;;8.50;99.90;;;;;;4936311;29;20035;-91
2023/04/13 10:04:55;;;;;;;9.30;1.40;;;8.50;99.90;;;;;;4938499;29;20027;-89
2023/04/13 10:07:25;;;;;;;14.93;2.28;;;8.50;99.90;;;;;;4938253;29;20051;-93
2023/04/13 10:09:52;;;;;;;9.48;2.20;;;8.50;99.90;;;;;;4922495;29;20123;-90
2023/04/13 10:12:24;;;;;;;6.40;1.13;;;8.60;99.90;;;;;;4937655;29;20044;-90
2023/04/13 10:14:55;;;;;;;10.77;1.33;;;8.70;99.90;;;;;;4922678;29;20032;-90
2023/04/13 10:18:05;;;;;;;9.88;1.02;;;8.90;99.90;;;;;;4937439;29;20027;-91
2023/04/13 10:20:32;;;;;;;8.30;1.17;;;9.00;99.90;;;;;;4915312;29;20537;-89
2023/04/13 10:22:58;;;;;;;13.07;1.20;;;9.10;99.90;;;;;;4901172;29;20498;-90
2023/04/13 10:25:26;;;;;;;5.18;0.98;;;9.30;99.90;;;;;;4901390;29;20035;-91
2023/04/13 10:27:58;;;;;;;10.05;1.67;;;9.40;99.90;;;;;;4901171;29;20031;-90
2023/04/13 10:30:25;;;;;;;10.18;1.50;;;9.50;99.90;;;;;;4907914;29;20028;-93
2023/04/13 10:33:04;;;;;;;7.85;1.05;;;9.60;99.90;;;;;;4901711;29;20092;-90
2023/04/13 10:35:29;;;;;;;10.50;1.38;;;9.70;99.90;;;;;;4898888;29;20028;-90
2023/04/13 10:37:58;;;;;;;7.72;1.90;;;9.80;99.90;;;;;;4914564;29;20415;-92
2023/04/13 10:40:23;;;;;;;6.05;1.10;;;9.90;99.90;;;;;;4913574;29;20020;-92
2023/04/13 10:42:50;;;;;;;11.20;1.45;;;9.90;99.90;;;;;;4894501;29;20032;-93
2023/04/13 10:45:25;;;;;;;7.97;1.08;;;10.00;99.90;;;;;;4914090;29;20129;-92
2023/04/13 10:47:52;;;;;;;6.55;0.93;;;10.00;99.90;;;;;;4891054;29;20031;-92
2023/04/13 10:50:22;;;;;;;8.00;2.65;;;10.00;99.90;;;;;;4911201;29;20040;-90
2023/04/13 10:53:00;;;;;;;11.70;1.77;;;10.10;99.90;;;;;;4934515;29;20568;-90
2023/04/13 10:55:27;;;;;;;10.93;1.63;;;10.00;99.90;;;;;;4925046;29;20038;-89
2023/04/13 10:57:55;;;;;;;8.32;1.30;;;9.90;99.90;;;;;;4926275;29;20048;-90
2023/04/13 11:00:21;;;;;;;8.10;1.52;;;9.80;99.90;;;;;;4927987;29;20024;-92
2023/04/13 11:02:52;;;;;;;7.30;0.98;;;9.60;99.90;;;;;;4933909;29;20172;-92
2023/04/13 11:05:19;;;;;;;12.80;1.33;;;9.70;99.90;;;;;;4917312;29;20107;-91
2023/04/13 11:07:49;;;;;;;8.23;1.27;;;9.80;99.90;;;;;;4917480;29;20043;-91
2023/04/13 11:10:24;;;;;;;3.90;0.85;;;10.10;99.90;;;;;;4921861;29;20032;-90
2023/04/13 11:12:54;;;;;;;8.15;1.20;;;10.40;99.90;;;;;;4918387;29;20084;-93
2023/04/13 11:15:25;;;;;;;16.40;1.48;;;10.60;99.90;;;;;;4932690;29;20110;-91
2023/04/13 11:17:56;;;;;;;12.63;1.45;;;10.70;99.90;;;;;;4936609;29;20201;-93
2023/04/13 11:20:33;;;;;;;9.77;1.70;;;10.70;99.90;;;;;;4935810;29;20390;-91
2023/04/13 11:23:02;;;;;;;7.53;1.42;;;10.60;99.90;;;;;;4935109;29;20067;-91
2023/04/13 11:25:29;;;;;;;7.45;1.65;;;10.40;99.90;;;;;;4934178;29;20173;-91
2023/04/13 11:27:59;;;;;;;5.68;1.33;;;10.20;99.90;;;;;;4935823;29;20528;-92
2023/04/13 11:30:27;;;;;;;13.13;2.42;;;10.10;99.90;;;;;;4935045;29;20054;-90
2023/04/13 11:32:54;;;;;;;7.45;1.10;;;9.90;99.90;;;;;;4935712;29;20039;-90
2023/04/13 11:35:22;;;;;;;10.20;1.40;;;9.80;99.90;;;;;;4936060;29;20489;-91
2023/04/13 11:37:51;;;;;;;7.95;1.30;;;9.70;99.90;;;;;;4935754;29;20090;-91
2023/04/13 11:40:21;;;;;;;16.02;2.03;;;9.50;99.90;;;;;;4935707;29;20040;-90
2023/04/13 11:42:53;;;;;;;11.02;1.27;;;9.40;99.90;;;;;;4936519;29;20031;-92
2023/04/13 11:45:21;;;;;;;11.65;1.52;;;9.40;99.90;;;;;;4939468;29;20083;-92
2023/04/13 11:47:49;;;;;;;2.72;0.70;;;9.50;99.90;;;;;;4940956;29;20059;-92
2023/04/13 11:50:16;;;;;;;6.45;0.88;;;9.50;99.90;;;;;;4940504;29;20035;-91
2023/04/13 11:52:45;;;;;;;8.85;1.23;;;9.50;99.90;;;;;;4930889;29;20040;-91
2023/04/13 11:55:12;;;;;;;10.75;2.28;;;9.30;99.90;;;;;;4940059;29;20039;-90
2023/04/13 11:57:40;;;;;;;6.03;0.93;;;9.20;99.90;;;;;;4937039;29;20069;-91
2023/04/13 12:00:24;;;;;;;10.82;1.60;;;9.20;99.90;;;;;;4938894;29;20107;-91
2023/04/13 12:02:53;;;;;;;10.88;1.58;;;9.20;99.90;;;;;;4936061;29;20083;-92
2023/04/13 12:05:29;;;;;;;6.75;1.38;;;9.10;99.90;;;;;;4938694;29;20112;-90
2023/04/13 12:07:57;;;;;;;7.95;2.25;;;9.10;99.90;;;;;;4927167;29;20028;-93
2023/04/13 12:10:33;;;;;;;7.90;1.13;;;9.20;99.90;;;;;;4938651;29;20079;-91
2023/04/13 12:13:10;;;;;;;9.57;0.98;;;9.20;99.90;;;;;;4937130;29;20034;-92
2023/04/13 12:15:38;;;;;;;10.23;1.70;;;9.30;99.90;;;;;;4929460;29;20028;-90
2023/04/13 12:18:04;;;;;;;6.50;1.25;;;9.40;99.90;;;;;;4936826;29;20043;-90
2023/04/13 12:20:38;;;;;;;13.48;1.27;;;9.40;99.90;;;;;;4935689;29;20024;-91
2023/04/13 12:23:16;;;;;;;7.47;1.02;;;9.40;99.90;;;;;;4934688;29;20024;-90
2023/04/13 12:25:59;;;;;;;6.32;0.90;;;9.40;99.90;;;;;;4938444;29;20452;-91
2023/04/13 12:28:38;;;;;;;11.73;1.67;;;9.50;99.90;;;;;;4938340;29;20028;-91
2023/04/13 12:31:06;;;;;;;8.82;1.10;;;9.50;99.90;;;;;;4938931;29;20035;-92
2023/04/13 12:33:32;;;;;;;8.80;1.52;;;9.50;99.90;;;;;;4939097;29;20038;-91
2023/04/13 12:35:58;;;;;;;8.10;1.65;;;9.60;99.90;;;;;;4939108;29;20159;-91
2023/04/13 12:38:24;;;;;;;9.38;1.50;;;9.60;99.90;;;;;;4940893;29;20032;-91
2023/04/13 12:40:59;;;;;;;8.80;1.00;;;9.60;99.90;;;;;;4938883;29;20632;-91
2023/04/13 12:43:26;;;;;;;7.28;1.00;;;9.60;99.90;;;;;;4938862;29;20019;-91
2023/04/13 12:45:53;;;;;;;8.98;1.17;;;9.60;99.90;;;;;;4939251;29;20043;-91
2023/04/13 12:48:20;;;;;;;4.47;0.80;;;9.60;99.90;;;;;;4940775;29;20056;-92
2023/04/13 12:50:50;;;;;;;7.57;1.15;;;9.90;99.90;;;;;;4937470;29;20036;-92
2023/04/13 12:53:16;;;;;;;6.68;1.00;;;10.20;99.90;;;;;;4920444;29;20043;-91
2023/04/13 12:55:45;;;;;;;8.98;1.40;;;10.30;99.90;;;;;;4938301;29;20539;-92
2023/04/13 12:58:15;;;;;;;7.82;1.67;;;10.30;99.90;;;;;;4939135;29;20063;-92
2023/04/13 13:00:41;;;;;;;8.85;1.27;;;10.30;99.90;;;;;;4954835;28;20034;-92